sensor_id;sensor_type;location;lat;lon;timestamp;P1;durP1;ratioP1;P2;durP2;ratioP2
52300;SDS011;38528;53.214;6.562;2022-07-23T00:01:29;6.10;;;3.47;;
52300;SDS011;38528;53.214;6.562;2022-07-23T00:03:56;8.48;;;3.50;;
52300;SDS011;38528;53.214;6.562;2022-07-23T00:06:22;7.32;;;3.72;;
52300;SDS011;38528;53.214;6.562;2022-07-23T00:08:48;6.03;;;3.83;;
52300;SDS011;38528;53.214;6.562;2022-07-23T00:11:14;8.95;;;3.88;;
52300;SDS011;38528;53.214;6.562;2022-07-23T00:13:39;8.82;;;3.70;;
52300;SDS011;38528;53.214;6.562;2022-07-23T00:16:05;7.63;;;3.90;;
52300;SDS011;38528;53.214;6.562;2022-07-23T00:18:31;8.40;;;4.00;;
52300;SDS011;38528;53.214;6.562;2022-07-23T00:20:57;7.15;;;3.60;;
52300;SDS011;38528;53.214;6.562;2022-07-23T00:23:23;10.02;;;4.50;;
52300;SDS011;38528;53.214;6.562;2022-07-23T00:25:50;7.13;;;3.60;;
52300;SDS011;38528;53.214;6.562;2022-07-23T00:28:16;6.68;;;3.55;;
52300;SDS011;38528;53.214;6.562;2022-07-23T00:30:43;7.50;;;3.80;;
52300;SDS011;38528;53.214;6.562;2022-07-23T00:33:09;8.43;;;4.03;;
52300;SDS011;38528;53.214;6.562;2022-07-23T00:35:35;7.70;;;4.38;;
52300;SDS011;38528;53.214;6.562;2022-07-23T00:38:05;8.95;;;3.95;;
52300;SDS011;38528;53.214;6.562;2022-07-23T00:40:31;8.30;;;4.45;;
52300;SDS011;38528;53.214;6.562;2022-07-23T00:42:58;7.35;;;3.90;;
52300;SDS011;38528;53.214;6.562;2022-07-23T00:45:24;7.25;;;3.95;;
52300;SDS011;38528;53.214;6.562;2022-07-23T00:47:50;11.60;;;4.20;;
52300;SDS011;38528;53.214;6.562;2022-07-23T00:50:16;8.60;;;4.30;;
52300;SDS011;38528;53.214;6.562;2022-07-23T00:52:41;7.03;;;3.95;;
52300;SDS011;38528;53.214;6.562;2022-07-23T00:55:08;7.28;;;4.47;;
52300;SDS011;38528;53.214;6.562;2022-07-23T00:57:34;9.70;;;4.57;;
52300;SDS011;38528;53.214;6.562;2022-07-23T01:00:00;9.15;;;4.57;;
52300;SDS011;38528;53.214;6.562;2022-07-23T01:02:27;6.38;;;4.45;;
52300;SDS011;38528;53.214;6.562;2022-07-23T01:04:53;8.90;;;4.95;;
52300;SDS011;38528;53.214;6.562;2022-07-23T01:07:20;10.02;;;4.72;;
52300;SDS011;38528;53.214;6.562;2022-07-23T01:09:46;10.85;;;4.97;;
52300;SDS011;38528;53.214;6.562;2022-07-23T01:12:13;9.85;;;4.72;;
52300;SDS011;38528;53.214;6.562;2022-07-23T01:14:39;7.28;;;4.07;;
52300;SDS011;38528;53.214;6.562;2022-07-23T01:17:05;7.32;;;3.80;;
52300;SDS011;38528;53.214;6.562;2022-07-23T01:19:30;7.38;;;4.28;;
52300;SDS011;38528;53.214;6.562;2022-07-23T01:21:56;6.53;;;4.15;;
52300;SDS011;38528;53.214;6.562;2022-07-23T01:24:23;6.35;;;4.43;;
52300;SDS011;38528;53.214;6.562;2022-07-23T01:26:49;11.30;;;4.53;;
52300;SDS011;38528;53.214;6.562;2022-07-23T01:29:15;9.38;;;5.38;;
52300;SDS011;38528;53.214;6.562;2022-07-23T01:31:41;8.93;;;4.90;;
52300;SDS011;38528;53.214;6.562;2022-07-23T01:34:07;7.55;;;4.90;;
52300;SDS011;38528;53.214;6.562;2022-07-23T01:36:34;11.05;;;4.35;;
52300;SDS011;38528;53.214;6.562;2022-07-23T01:39:00;7.50;;;4.40;;
52300;SDS011;38528;53.214;6.562;2022-07-23T01:41:25;11.45;;;5.25;;
52300;SDS011;38528;53.214;6.562;2022-07-23T01:43:51;8.18;;;4.47;;
52300;SDS011;38528;53.214;6.562;2022-07-23T01:46:17;8.43;;;4.47;;
52300;SDS011;38528;53.214;6.562;2022-07-23T01:48:42;11.23;;;4.63;;
52300;SDS011;38528;53.214;6.562;2022-07-23T01:51:08;11.85;;;4.63;;
52300;SDS011;38528;53.214;6.562;2022-07-23T01:53:33;10.70;;;4.55;;
52300;SDS011;38528;53.214;6.562;2022-07-23T01:55:59;6.53;;;4.47;;
52300;SDS011;38528;53.214;6.562;2022-07-23T01:58:26;9.52;;;4.53;;
52300;SDS011;38528;53.214;6.562;2022-07-23T02:00:52;9.48;;;4.45;;
52300;SDS011;38528;53.214;6.562;2022-07-23T02:03:19;9.93;;;5.10;;
52300;SDS011;38528;53.214;6.562;2022-07-23T02:05:45;7.97;;;4.80;;
52300;SDS011;38528;53.214;6.562;2022-07-23T02:08:10;8.02;;;4.82;;
52300;SDS011;38528;53.214;6.562;2022-07-23T02:10:36;7.30;;;4.50;;
52300;SDS011;38528;53.214;6.562;2022-07-23T02:13:02;9.52;;;5.07;;
52300;SDS011;38528;53.214;6.562;2022-07-23T02:15:27;10.60;;;4.82;;
52300;SDS011;38528;53.214;6.562;2022-07-23T02:17:55;7.15;;;4.70;;
52300;SDS011;38528;53.214;6.562;2022-07-23T02:20:21;8.70;;;4.75;;
52300;SDS011;38528;53.214;6.562;2022-07-23T02:22:47;10.60;;;4.80;;
52300;SDS011;38528;53.214;6.562;2022-07-23T02:25:13;12.85;;;5.28;;
52300;SDS011;38528;53.214;6.562;2022-07-23T02:27:39;10.02;;;4.93;;
52300;SDS011;38528;53.214;6.562;2022-07-23T02:30:05;12.15;;;5.32;;
52300;SDS011;38528;53.214;6.562;2022-07-23T02:32:31;9.68;;;5.15;;
52300;SDS011;38528;53.214;6.562;2022-07-23T02:34:57;11.13;;;4.85;;
52300;SDS011;38528;53.214;6.562;2022-07-23T02:37:22;10.98;;;5.18;;
52300;SDS011;38528;53.214;6.562;2022-07-23T02:39:48;10.93;;;5.28;;
52300;SDS011;38528;53.214;6.562;2022-07-23T02:42:14;10.55;;;5.40;;
52300;SDS011;38528;53.214;6.562;2022-07-23T02:44:40;9.45;;;5.50;;
52300;SDS011;38528;53.214;6.562;2022-07-23T02:47:06;10.80;;;5.25;;
52300;SDS011;38528;53.214;6.562;2022-07-23T02:49:31;8.70;;;5.43;;
52300;SDS011;38528;53.214;6.562;2022-07-23T02:51:57;6.88;;;4.88;;
52300;SDS011;38528;53.214;6.562;2022-07-23T02:54:22;11.15;;;5.60;;
52300;SDS011;38528;53.214;6.562;2022-07-23T02:56:48;9.95;;;5.10;;
52300;SDS011;38528;53.214;6.562;2022-07-23T02:59:16;9.73;;;5.68;;
52300;SDS011;38528;53.214;6.562;2022-07-23T03:01:42;8.63;;;5.22;;
52300;SDS011;38528;53.214;6.562;2022-07-23T03:04:08;9.40;;;5.32;;
52300;SDS011;38528;53.214;6.562;2022-07-23T03:06:33;10.70;;;5.57;;
52300;SDS011;38528;53.214;6.562;2022-07-23T03:08:59;8.02;;;5.05;;
52300;SDS011;38528;53.214;6.562;2022-07-23T03:11:25;8.30;;;5.53;;
52300;SDS011;38528;53.214;6.562;2022-07-23T03:13:50;9.02;;;5.45;;
52300;SDS011;38528;53.214;6.562;2022-07-23T03:16:16;9.85;;;5.47;;
52300;SDS011;38528;53.214;6.562;2022-07-23T03:18:41;10.40;;;5.20;;
52300;SDS011;38528;53.214;6.562;2022-07-23T03:21:07;10.45;;;5.53;;
52300;SDS011;38528;53.214;6.562;2022-07-23T03:23:33;9.80;;;5.35;;
52300;SDS011;38528;53.214;6.562;2022-07-23T03:25:59;10.05;;;5.35;;
52300;SDS011;38528;53.214;6.562;2022-07-23T03:28:24;10.23;;;4.95;;
52300;SDS011;38528;53.214;6.562;2022-07-23T03:30:50;8.80;;;5.18;;
52300;SDS011;38528;53.214;6.562;2022-07-23T03:33:16;10.48;;;5.85;;
52300;SDS011;38528;53.214;6.562;2022-07-23T03:35:43;8.65;;;5.15;;
52300;SDS011;38528;53.214;6.562;2022-07-23T03:38:09;9.65;;;4.80;;
52300;SDS011;38528;53.214;6.562;2022-07-23T03:40:34;7.63;;;4.70;;
52300;SDS011;38528;53.214;6.562;2022-07-23T03:43:00;9.10;;;5.15;;
52300;SDS011;38528;53.214;6.562;2022-07-23T03:45:26;8.73;;;4.57;;
52300;SDS011;38528;53.214;6.562;2022-07-23T03:47:52;10.85;;;5.38;;
52300;SDS011;38528;53.214;6.562;2022-07-23T03:50:18;7.20;;;4.80;;
52300;SDS011;38528;53.214;6.562;2022-07-23T03:52:43;9.35;;;5.10;;
52300;SDS011;38528;53.214;6.562;2022-07-23T03:55:09;8.93;;;5.18;;
52300;SDS011;38528;53.214;6.562;2022-07-23T03:57:35;7.70;;;4.80;;
52300;SDS011;38528;53.214;6.562;2022-07-23T04:00:01;9.40;;;5.22;;
52300;SDS011;38528;53.214;6.562;2022-07-23T04:02:28;7.50;;;4.63;;
52300;SDS011;38528;53.214;6.562;2022-07-23T04:04:54;9.38;;;4.75;;
52300;SDS011;38528;53.214;6.562;2022-07-23T04:07:19;10.65;;;4.70;;
52300;SDS011;38528;53.214;6.562;2022-07-23T04:09:46;10.00;;;4.65;;
52300;SDS011;38528;53.214;6.562;2022-07-23T04:12:12;7.55;;;4.78;;
52300;SDS011;38528;53.214;6.562;2022-07-23T04:14:38;8.00;;;4.63;;
52300;SDS011;38528;53.214;6.562;2022-07-23T04:17:03;9.32;;;4.97;;
52300;SDS011;38528;53.214;6.562;2022-07-23T04:19:29;7.53;;;4.65;;
52300;SDS011;38528;53.214;6.562;2022-07-23T04:21:55;7.28;;;4.55;;
52300;SDS011;38528;53.214;6.562;2022-07-23T04:24:21;9.35;;;4.80;;
52300;SDS011;38528;53.214;6.562;2022-07-23T04:26:47;9.02;;;4.90;;
52300;SDS011;38528;53.214;6.562;2022-07-23T04:29:12;10.23;;;4.38;;
52300;SDS011;38528;53.214;6.562;2022-07-23T04:31:38;6.63;;;4.50;;
52300;SDS011;38528;53.214;6.562;2022-07-23T04:34:04;9.50;;;4.82;;
52300;SDS011;38528;53.214;6.562;2022-07-23T04:36:30;7.55;;;4.15;;
52300;SDS011;38528;53.214;6.562;2022-07-23T04:38:55;8.80;;;3.90;;
52300;SDS011;38528;53.214;6.562;2022-07-23T04:41:21;7.57;;;4.10;;
52300;SDS011;38528;53.214;6.562;2022-07-23T04:43:47;7.50;;;3.97;;
52300;SDS011;38528;53.214;6.562;2022-07-23T04:46:12;7.53;;;4.00;;
52300;SDS011;38528;53.214;6.562;2022-07-23T04:48:38;11.90;;;4.45;;
52300;SDS011;38528;53.214;6.562;2022-07-23T04:51:04;9.82;;;4.40;;
52300;SDS011;38528;53.214;6.562;2022-07-23T04:53:30;10.00;;;4.22;;
52300;SDS011;38528;53.214;6.562;2022-07-23T04:55:55;7.95;;;3.97;;
52300;SDS011;38528;53.214;6.562;2022-07-23T04:58:21;10.70;;;4.15;;
52300;SDS011;38528;53.214;6.562;2022-07-23T05:00:47;7.00;;;4.13;;
52300;SDS011;38528;53.214;6.562;2022-07-23T05:03:12;7.22;;;4.20;;
52300;SDS011;38528;53.214;6.562;2022-07-23T05:05:38;9.50;;;3.70;;
52300;SDS011;38528;53.214;6.562;2022-07-23T05:08:04;9.75;;;4.35;;
52300;SDS011;38528;53.214;6.562;2022-07-23T05:10:29;7.60;;;4.25;;
52300;SDS011;38528;53.214;6.562;2022-07-23T05:12:55;7.13;;;3.60;;
52300;SDS011;38528;53.214;6.562;2022-07-23T05:15:21;7.10;;;3.95;;
52300;SDS011;38528;53.214;6.562;2022-07-23T05:17:46;10.98;;;3.92;;
52300;SDS011;38528;53.214;6.562;2022-07-23T05:20:12;6.35;;;3.58;;
52300;SDS011;38528;53.214;6.562;2022-07-23T05:22:38;6.22;;;3.70;;
52300;SDS011;38528;53.214;6.562;2022-07-23T05:25:04;7.88;;;4.18;;
52300;SDS011;38528;53.214;6.562;2022-07-23T05:27:30;7.80;;;4.03;;
52300;SDS011;38528;53.214;6.562;2022-07-23T05:29:56;6.15;;;3.80;;
52300;SDS011;38528;53.214;6.562;2022-07-23T05:32:22;10.40;;;3.97;;
52300;SDS011;38528;53.214;6.562;2022-07-23T05:34:48;6.20;;;3.83;;
52300;SDS011;38528;53.214;6.562;2022-07-23T05:37:14;6.53;;;3.70;;
52300;SDS011;38528;53.214;6.562;2022-07-23T05:39:40;8.57;;;4.03;;
52300;SDS011;38528;53.214;6.562;2022-07-23T05:42:06;6.80;;;4.00;;
52300;SDS011;38528;53.214;6.562;2022-07-23T05:44:32;6.32;;;4.00;;
52300;SDS011;38528;53.214;6.562;2022-07-23T05:46:58;6.75;;;3.83;;
52300;SDS011;38528;53.214;6.562;2022-07-23T05:49:23;7.38;;;4.20;;
52300;SDS011;38528;53.214;6.562;2022-07-23T05:51:49;6.63;;;3.75;;
52300;SDS011;38528;53.214;6.562;2022-07-23T05:54:15;7.28;;;3.70;;
52300;SDS011;38528;53.214;6.562;2022-07-23T05:56:40;4.75;;;3.30;;
52300;SDS011;38528;53.214;6.562;2022-07-23T05:59:06;7.20;;;3.45;;
52300;SDS011;38528;53.214;6.562;2022-07-23T06:01:31;6.50;;;3.55;;
52300;SDS011;38528;53.214;6.562;2022-07-23T06:03:57;5.63;;;2.90;;
52300;SDS011;38528;53.214;6.562;2022-07-23T06:06:22;7.88;;;2.85;;
52300;SDS011;38528;53.214;6.562;2022-07-23T06:08:48;6.78;;;2.88;;
52300;SDS011;38528;53.214;6.562;2022-07-23T06:11:14;7.35;;;3.08;;
52300;SDS011;38528;53.214;6.562;2022-07-23T06:13:39;4.75;;;2.80;;
52300;SDS011;38528;53.214;6.562;2022-07-23T06:16:05;6.20;;;2.70;;
52300;SDS011;38528;53.214;6.562;2022-07-23T06:18:31;3.90;;;2.50;;
52300;SDS011;38528;53.214;6.562;2022-07-23T06:20:56;4.10;;;2.92;;
52300;SDS011;38528;53.214;6.562;2022-07-23T06:23:22;5.45;;;2.50;;
52300;SDS011;38528;53.214;6.562;2022-07-23T06:25:48;5.07;;;2.65;;
52300;SDS011;38528;53.214;6.562;2022-07-23T06:28:13;4.95;;;2.95;;
52300;SDS011;38528;53.214;6.562;2022-07-23T06:30:39;4.32;;;2.67;;
52300;SDS011;38528;53.214;6.562;2022-07-23T06:33:04;6.15;;;2.88;;
52300;SDS011;38528;53.214;6.562;2022-07-23T06:35:30;5.07;;;2.60;;
52300;SDS011;38528;53.214;6.562;2022-07-23T06:37:56;5.32;;;2.92;;
52300;SDS011;38528;53.214;6.562;2022-07-23T06:40:21;4.53;;;2.67;;
52300;SDS011;38528;53.214;6.562;2022-07-23T06:42:47;4.70;;;2.70;;
52300;SDS011;38528;53.214;6.562;2022-07-23T06:45:13;5.82;;;2.95;;
52300;SDS011;38528;53.214;6.562;2022-07-23T06:47:38;6.43;;;3.08;;
52300;SDS011;38528;53.214;6.562;2022-07-23T06:50:05;4.65;;;2.80;;
52300;SDS011;38528;53.214;6.562;2022-07-23T06:52:31;6.82;;;2.83;;
52300;SDS011;38528;53.214;6.562;2022-07-23T06:54:56;5.68;;;2.70;;
52300;SDS011;38528;53.214;6.562;2022-07-23T06:57:22;7.03;;;3.20;;
52300;SDS011;38528;53.214;6.562;2022-07-23T06:59:50;7.18;;;3.03;;
52300;SDS011;38528;53.214;6.562;2022-07-23T07:02:16;7.07;;;3.00;;
52300;SDS011;38528;53.214;6.562;2022-07-23T07:04:42;5.47;;;2.58;;
52300;SDS011;38528;53.214;6.562;2022-07-23T07:07:07;5.07;;;2.63;;
52300;SDS011;38528;53.214;6.562;2022-07-23T07:09:33;5.18;;;2.60;;
52300;SDS011;38528;53.214;6.562;2022-07-23T07:11:59;5.55;;;2.70;;
52300;SDS011;38528;53.214;6.562;2022-07-23T07:14:24;5.72;;;2.00;;
52300;SDS011;38528;53.214;6.562;2022-07-23T07:16:50;2.88;;;1.52;;
52300;SDS011;38528;53.214;6.562;2022-07-23T07:19:15;2.65;;;1.60;;
52300;SDS011;38528;53.214;6.562;2022-07-23T07:21:41;3.53;;;1.55;;
52300;SDS011;38528;53.214;6.562;2022-07-23T07:24:07;3.70;;;1.60;;
52300;SDS011;38528;53.214;6.562;2022-07-23T07:26:33;2.15;;;1.40;;
52300;SDS011;38528;53.214;6.562;2022-07-23T07:28:58;2.20;;;1.30;;
52300;SDS011;38528;53.214;6.562;2022-07-23T07:31:24;3.92;;;1.27;;
52300;SDS011;38528;53.214;6.562;2022-07-23T07:33:50;2.72;;;1.20;;
52300;SDS011;38528;53.214;6.562;2022-07-23T07:36:16;5.65;;;1.40;;
52300;SDS011;38528;53.214;6.562;2022-07-23T07:38:41;2.70;;;1.30;;
52300;SDS011;38528;53.214;6.562;2022-07-23T07:41:07;5.07;;;1.40;;
52300;SDS011;38528;53.214;6.562;2022-07-23T07:43:35;2.40;;;1.25;;
52300;SDS011;38528;53.214;6.562;2022-07-23T07:46:01;1.85;;;1.25;;
52300;SDS011;38528;53.214;6.562;2022-07-23T07:48:28;2.75;;;1.10;;
52300;SDS011;38528;53.214;6.562;2022-07-23T07:50:53;1.77;;;1.10;;
52300;SDS011;38528;53.214;6.562;2022-07-23T07:53:19;2.60;;;1.10;;
52300;SDS011;38528;53.214;6.562;2022-07-23T07:55:44;1.70;;;1.02;;
52300;SDS011;38528;53.214;6.562;2022-07-23T07:58:10;1.83;;;0.90;;
52300;SDS011;38528;53.214;6.562;2022-07-23T08:00:36;1.90;;;1.10;;
52300;SDS011;38528;53.214;6.562;2022-07-23T08:03:02;3.22;;;1.10;;
52300;SDS011;38528;53.214;6.562;2022-07-23T08:05:28;2.17;;;1.10;;
52300;SDS011;38528;53.214;6.562;2022-07-23T08:07:55;2.45;;;1.10;;
52300;SDS011;38528;53.214;6.562;2022-07-23T08:10:22;2.47;;;1.30;;
52300;SDS011;38528;53.214;6.562;2022-07-23T08:12:49;2.15;;;1.20;;
52300;SDS011;38528;53.214;6.562;2022-07-23T08:15:23;2.53;;;1.20;;
52300;SDS011;38528;53.214;6.562;2022-07-23T08:17:50;2.65;;;0.98;;
52300;SDS011;38528;53.214;6.562;2022-07-23T08:20:17;3.63;;;1.13;;
52300;SDS011;38528;53.214;6.562;2022-07-23T08:22:53;2.25;;;1.10;;
52300;SDS011;38528;53.214;6.562;2022-07-23T08:25:24;1.73;;;0.93;;
52300;SDS011;38528;53.214;6.562;2022-07-23T08:27:52;2.63;;;1.10;;
52300;SDS011;38528;53.214;6.562;2022-07-23T08:30:19;5.13;;;1.38;;
52300;SDS011;38528;53.214;6.562;2022-07-23T08:32:48;4.53;;;1.40;;
52300;SDS011;38528;53.214;6.562;2022-07-23T08:35:14;1.95;;;1.15;;
52300;SDS011;38528;53.214;6.562;2022-07-23T08:37:41;2.92;;;1.05;;
52300;SDS011;38528;53.214;6.562;2022-07-23T08:40:06;3.22;;;1.35;;
52300;SDS011;38528;53.214;6.562;2022-07-23T08:42:32;3.28;;;1.20;;
52300;SDS011;38528;53.214;6.562;2022-07-23T08:45:00;3.95;;;1.20;;
52300;SDS011;38528;53.214;6.562;2022-07-23T08:47:27;2.30;;;1.30;;
52300;SDS011;38528;53.214;6.562;2022-07-23T08:49:54;1.13;;;1.02;;
52300;SDS011;38528;53.214;6.562;2022-07-23T08:52:21;2.72;;;1.13;;
52300;SDS011;38528;53.214;6.562;2022-07-23T08:54:48;7.03;;;1.30;;
52300;SDS011;38528;53.214;6.562;2022-07-23T08:57:14;1.85;;;1.00;;
52300;SDS011;38528;53.214;6.562;2022-07-23T08:59:40;3.63;;;1.30;;
52300;SDS011;38528;53.214;6.562;2022-07-23T09:02:06;3.33;;;1.27;;
52300;SDS011;38528;53.214;6.562;2022-07-23T09:04:32;1.98;;;1.02;;
52300;SDS011;38528;53.214;6.562;2022-07-23T09:06:57;1.63;;;1.10;;
52300;SDS011;38528;53.214;6.562;2022-07-23T09:09:24;2.97;;;1.10;;
52300;SDS011;38528;53.214;6.562;2022-07-23T09:14:39;2.20;;;1.10;;
52300;SDS011;38528;53.214;6.562;2022-07-23T09:17:10;3.15;;;1.10;;
52300;SDS011;38528;53.214;6.562;2022-07-23T09:19:37;6.75;;;1.27;;
52300;SDS011;38528;53.214;6.562;2022-07-23T09:22:19;3.10;;;1.10;;
52300;SDS011;38528;53.214;6.562;2022-07-23T09:25:02;2.20;;;1.20;;
52300;SDS011;38528;53.214;6.562;2022-07-23T09:33:51;2.60;;;1.20;;
52300;SDS011;38528;53.214;6.562;2022-07-23T09:36:32;3.05;;;1.30;;
52300;SDS011;38528;53.214;6.562;2022-07-23T09:38:58;3.25;;;1.23;;
52300;SDS011;38528;53.214;6.562;2022-07-23T09:41:23;2.05;;;1.20;;
52300;SDS011;38528;53.214;6.562;2022-07-23T09:43:54;2.75;;;1.17;;
52300;SDS011;38528;53.214;6.562;2022-07-23T09:48:49;5.32;;;1.40;;
52300;SDS011;38528;53.214;6.562;2022-07-23T09:51:17;2.05;;;1.10;;
52300;SDS011;38528;53.214;6.562;2022-07-23T09:54:01;2.75;;;1.10;;
52300;SDS011;38528;53.214;6.562;2022-07-23T09:56:27;2.75;;;1.10;;
52300;SDS011;38528;53.214;6.562;2022-07-23T09:58:53;4.05;;;1.20;;
52300;SDS011;38528;53.214;6.562;2022-07-23T10:01:38;5.72;;;1.40;;
52300;SDS011;38528;53.214;6.562;2022-07-23T10:04:04;2.58;;;1.10;;
52300;SDS011;38528;53.214;6.562;2022-07-23T10:06:31;4.47;;;1.35;;
52300;SDS011;38528;53.214;6.562;2022-07-23T10:08:58;1.90;;;1.00;;
52300;SDS011;38528;53.214;6.562;2022-07-23T10:11:26;1.95;;;1.20;;
52300;SDS011;38528;53.214;6.562;2022-07-23T10:13:56;1.92;;;1.30;;
52300;SDS011;38528;53.214;6.562;2022-07-23T10:16:24;2.40;;;1.30;;
52300;SDS011;38528;53.214;6.562;2022-07-23T10:18:51;5.20;;;1.38;;
52300;SDS011;38528;53.214;6.562;2022-07-23T10:21:25;2.20;;;1.25;;
52300;SDS011;38528;53.214;6.562;2022-07-23T10:24:21;2.72;;;1.30;;
52300;SDS011;38528;53.214;6.562;2022-07-23T10:37:35;3.72;;;1.40;;
52300;SDS011;38528;53.214;6.562;2022-07-23T10:40:11;4.50;;;1.90;;
52300;SDS011;38528;53.214;6.562;2022-07-23T10:42:39;4.00;;;1.40;;
52300;SDS011;38528;53.214;6.562;2022-07-23T10:47:54;4.95;;;1.45;;
52300;SDS011;38528;53.214;6.562;2022-07-23T10:50:24;3.17;;;1.52;;
52300;SDS011;38528;53.214;6.562;2022-07-23T10:53:07;3.25;;;1.30;;
52300;SDS011;38528;53.214;6.562;2022-07-23T10:57:59;2.17;;;1.30;;
52300;SDS011;38528;53.214;6.562;2022-07-23T11:00:29;3.92;;;1.40;;
52300;SDS011;38528;53.214;6.562;2022-07-23T11:03:00;7.40;;;1.50;;
52300;SDS011;38528;53.214;6.562;2022-07-23T11:05:44;4.30;;;1.40;;
52300;SDS011;38528;53.214;6.562;2022-07-23T11:08:15;3.85;;;1.38;;
52300;SDS011;38528;53.214;6.562;2022-07-23T11:10:46;3.33;;;1.50;;
52300;SDS011;38528;53.214;6.562;2022-07-23T11:24:05;6.35;;;1.63;;
52300;SDS011;38528;53.214;6.562;2022-07-23T11:34:35;4.55;;;1.40;;
52300;SDS011;38528;53.214;6.562;2022-07-23T11:37:02;3.00;;;1.83;;
52300;SDS011;38528;53.214;6.562;2022-07-23T11:39:29;6.22;;;1.60;;
52300;SDS011;38528;53.214;6.562;2022-07-23T11:41:56;8.07;;;2.00;;
52300;SDS011;38528;53.214;6.562;2022-07-23T11:44:30;5.55;;;1.70;;
52300;SDS011;38528;53.214;6.562;2022-07-23T11:49:23;6.00;;;1.80;;
52300;SDS011;38528;53.214;6.562;2022-07-23T11:52:02;2.85;;;1.58;;
52300;SDS011;38528;53.214;6.562;2022-07-23T11:54:32;3.65;;;1.60;;
52300;SDS011;38528;53.214;6.562;2022-07-23T11:56:59;2.92;;;1.70;;
52300;SDS011;38528;53.214;6.562;2022-07-23T11:59:30;6.15;;;1.77;;
52300;SDS011;38528;53.214;6.562;2022-07-23T12:10:13;6.18;;;1.70;;
52300;SDS011;38528;53.214;6.562;2022-07-23T12:12:44;4.38;;;1.90;;
52300;SDS011;38528;53.214;6.562;2022-07-23T12:15:22;2.50;;;1.60;;
52300;SDS011;38528;53.214;6.562;2022-07-23T12:17:54;3.78;;;1.88;;
52300;SDS011;38528;53.214;6.562;2022-07-23T12:20:24;4.82;;;1.50;;
52300;SDS011;38528;53.214;6.562;2022-07-23T12:22:51;3.60;;;1.58;;
52300;SDS011;38528;53.214;6.562;2022-07-23T12:25:21;2.55;;;1.33;;
52300;SDS011;38528;53.214;6.562;2022-07-23T12:27:58;3.95;;;1.27;;
52300;SDS011;38528;53.214;6.562;2022-07-23T12:33:06;5.45;;;1.60;;
52300;SDS011;38528;53.214;6.562;2022-07-23T12:35:34;2.90;;;1.55;;
52300;SDS011;38528;53.214;6.562;2022-07-23T12:38:03;3.78;;;1.40;;
52300;SDS011;38528;53.214;6.562;2022-07-23T12:40:32;6.53;;;1.48;;
52300;SDS011;38528;53.214;6.562;2022-07-23T12:43:08;3.38;;;1.60;;
52300;SDS011;38528;53.214;6.562;2022-07-23T12:45:43;2.13;;;1.20;;
52300;SDS011;38528;53.214;6.562;2022-07-23T12:48:27;3.47;;;1.30;;
52300;SDS011;38528;53.214;6.562;2022-07-23T12:53:27;3.97;;;1.30;;
52300;SDS011;38528;53.214;6.562;2022-07-23T12:55:59;3.70;;;1.30;;
52300;SDS011;38528;53.214;6.562;2022-07-23T12:58:38;3.22;;;1.50;;
52300;SDS011;38528;53.214;6.562;2022-07-23T13:01:06;2.78;;;1.45;;
52300;SDS011;38528;53.214;6.562;2022-07-23T13:06:06;2.60;;;1.30;;
52300;SDS011;38528;53.214;6.562;2022-07-23T13:08:37;4.78;;;1.70;;
52300;SDS011;38528;53.214;6.562;2022-07-23T13:11:05;6.57;;;1.38;;
52300;SDS011;38528;53.214;6.562;2022-07-23T13:13:32;2.42;;;1.30;;
52300;SDS011;38528;53.214;6.562;2022-07-23T13:16:00;3.53;;;1.30;;
52300;SDS011;38528;53.214;6.562;2022-07-23T13:18:26;2.15;;;1.30;;
52300;SDS011;38528;53.214;6.562;2022-07-23T13:20:53;3.63;;;1.52;;
52300;SDS011;38528;53.214;6.562;2022-07-23T13:23:19;3.53;;;1.40;;
52300;SDS011;38528;53.214;6.562;2022-07-23T13:25:45;2.78;;;1.38;;
52300;SDS011;38528;53.214;6.562;2022-07-23T13:28:12;2.97;;;1.45;;
52300;SDS011;38528;53.214;6.562;2022-07-23T13:30:38;2.95;;;1.40;;
52300;SDS011;38528;53.214;6.562;2022-07-23T13:33:04;3.72;;;1.55;;
52300;SDS011;38528;53.214;6.562;2022-07-23T13:35:31;4.78;;;1.60;;
52300;SDS011;38528;53.214;6.562;2022-07-23T13:37:58;2.03;;;1.20;;
52300;SDS011;38528;53.214;6.562;2022-07-23T13:40:24;2.45;;;1.35;;
52300;SDS011;38528;53.214;6.562;2022-07-23T13:42:49;2.85;;;1.35;;
52300;SDS011;38528;53.214;6.562;2022-07-23T13:45:15;2.22;;;1.40;;
52300;SDS011;38528;53.214;6.562;2022-07-23T13:47:41;2.67;;;1.50;;
52300;SDS011;38528;53.214;6.562;2022-07-23T13:50:07;2.72;;;1.48;;
52300;SDS011;38528;53.214;6.562;2022-07-23T13:52:33;2.97;;;1.60;;
52300;SDS011;38528;53.214;6.562;2022-07-23T13:55:00;3.08;;;1.52;;
52300;SDS011;38528;53.214;6.562;2022-07-23T13:57:26;2.92;;;1.48;;
52300;SDS011;38528;53.214;6.562;2022-07-23T13:59:52;3.63;;;1.65;;
52300;SDS011;38528;53.214;6.562;2022-07-23T14:02:17;5.38;;;1.50;;
52300;SDS011;38528;53.214;6.562;2022-07-23T14:04:43;4.43;;;1.52;;
52300;SDS011;38528;53.214;6.562;2022-07-23T14:07:09;3.60;;;1.70;;
52300;SDS011;38528;53.214;6.562;2022-07-23T14:09:35;2.88;;;1.50;;
52300;SDS011;38528;53.214;6.562;2022-07-23T14:12:02;4.35;;;1.40;;
52300;SDS011;38528;53.214;6.562;2022-07-23T14:14:28;2.75;;;1.42;;
52300;SDS011;38528;53.214;6.562;2022-07-23T14:16:54;4.03;;;1.60;;
52300;SDS011;38528;53.214;6.562;2022-07-23T14:19:20;2.47;;;1.50;;
52300;SDS011;38528;53.214;6.562;2022-07-23T14:21:46;3.60;;;1.50;;
52300;SDS011;38528;53.214;6.562;2022-07-23T14:24:13;4.90;;;1.40;;
52300;SDS011;38528;53.214;6.562;2022-07-23T14:26:39;3.78;;;1.40;;
52300;SDS011;38528;53.214;6.562;2022-07-23T14:29:05;4.35;;;1.85;;
52300;SDS011;38528;53.214;6.562;2022-07-23T14:31:31;4.05;;;1.77;;
52300;SDS011;38528;53.214;6.562;2022-07-23T14:33:56;5.93;;;1.55;;
52300;SDS011;38528;53.214;6.562;2022-07-23T14:36:22;3.03;;;1.70;;
52300;SDS011;38528;53.214;6.562;2022-07-23T14:38:48;4.45;;;1.90;;
52300;SDS011;38528;53.214;6.562;2022-07-23T14:41:14;2.80;;;1.58;;
52300;SDS011;38528;53.214;6.562;2022-07-23T14:43:40;4.28;;;1.60;;
52300;SDS011;38528;53.214;6.562;2022-07-23T14:46:06;3.45;;;1.67;;
52300;SDS011;38528;53.214;6.562;2022-07-23T14:48:31;7.22;;;1.80;;
52300;SDS011;38528;53.214;6.562;2022-07-23T14:50:57;3.00;;;1.42;;
52300;SDS011;38528;53.214;6.562;2022-07-23T14:53:23;4.05;;;1.45;;
52300;SDS011;38528;53.214;6.562;2022-07-23T14:55:48;3.88;;;1.50;;
52300;SDS011;38528;53.214;6.562;2022-07-23T14:58:14;3.72;;;1.65;;
52300;SDS011;38528;53.214;6.562;2022-07-23T15:00:40;2.22;;;1.35;;
52300;SDS011;38528;53.214;6.562;2022-07-23T15:03:05;2.72;;;1.40;;
52300;SDS011;38528;53.214;6.562;2022-07-23T15:05:31;4.55;;;1.50;;
52300;SDS011;38528;53.214;6.562;2022-07-23T15:07:56;2.72;;;1.55;;
52300;SDS011;38528;53.214;6.562;2022-07-23T15:10:22;3.38;;;1.55;;
52300;SDS011;38528;53.214;6.562;2022-07-23T15:12:48;3.97;;;1.50;;
52300;SDS011;38528;53.214;6.562;2022-07-23T15:15:14;4.30;;;1.67;;
52300;SDS011;38528;53.214;6.562;2022-07-23T15:17:39;3.58;;;1.50;;
52300;SDS011;38528;53.214;6.562;2022-07-23T15:20:05;5.15;;;1.52;;
52300;SDS011;38528;53.214;6.562;2022-07-23T15:22:32;2.53;;;1.50;;
52300;SDS011;38528;53.214;6.562;2022-07-23T15:24:57;2.90;;;1.48;;
52300;SDS011;38528;53.214;6.562;2022-07-23T15:27:23;4.00;;;1.50;;
52300;SDS011;38528;53.214;6.562;2022-07-23T15:29:52;3.63;;;1.63;;
52300;SDS011;38528;53.214;6.562;2022-07-23T15:32:17;3.40;;;1.70;;
52300;SDS011;38528;53.214;6.562;2022-07-23T15:34:43;4.25;;;1.50;;
52300;SDS011;38528;53.214;6.562;2022-07-23T15:37:08;4.22;;;1.60;;
52300;SDS011;38528;53.214;6.562;2022-07-23T15:39:34;1.52;;;1.40;;
52300;SDS011;38528;53.214;6.562;2022-07-23T15:42:00;2.70;;;1.60;;
52300;SDS011;38528;53.214;6.562;2022-07-23T15:44:26;3.25;;;1.60;;
52300;SDS011;38528;53.214;6.562;2022-07-23T15:46:52;4.05;;;1.60;;
52300;SDS011;38528;53.214;6.562;2022-07-23T15:49:18;3.63;;;1.70;;